createdAt,value
2023-04-15T00:00:10.355Z,25.27
2023-04-15T00:02:41.491Z,25.45
2023-04-15T00:05:10.048Z,23.85
2023-04-15T00:07:38.655Z,22.02
2023-04-15T00:10:07.624Z,21.95
2023-04-15T00:12:35.588Z,22.23
2023-04-15T00:15:05.472Z,21.58
2023-04-15T00:17:33.434Z,22.67
2023-04-15T00:20:01.371Z,21.35
2023-04-15T00:22:29.276Z,21.25
2023-04-15T00:24:57.247Z,20.92
2023-04-15T00:27:25.553Z,21.42
2023-04-15T00:29:53.469Z,21.33
2023-04-15T00:32:23.590Z,21.50
2023-04-15T00:34:52.557Z,20.65
2023-04-15T00:37:20.556Z,20.10
2023-04-15T00:39:48.464Z,22.20
2023-04-15T00:42:17.375Z,22.48
2023-04-15T00:44:45.440Z,21.70
2023-04-15T00:47:13.679Z,24.48
2023-04-15T00:49:43.129Z,21.77
2023-04-15T00:52:11.120Z,21.58
2023-04-15T00:54:39.033Z,22.42
2023-04-15T00:57:07.463Z,21.65
2023-04-15T00:59:35.433Z,22.73
2023-04-15T01:02:03.473Z,20.75
2023-04-15T01:04:32.101Z,22.10
2023-04-15T01:07:02.585Z,23.58
2023-04-15T01:09:30.529Z,24.35
2023-04-15T01:11:58.643Z,23.20
2023-04-15T01:14:26.682Z,23.88
2023-04-15T01:16:54.661Z,23.73
2023-04-15T01:19:22.692Z,21.38
2023-04-15T01:21:50.751Z,22.55
2023-04-15T01:24:21.307Z,22.75
2023-04-15T01:26:52.180Z,22.25
2023-04-15T01:29:20.147Z,21.60
2023-04-15T01:31:53.120Z,23.73
2023-04-15T01:36:49.269Z,21.10
2023-04-15T01:39:17.195Z,20.88
2023-04-15T01:41:45.081Z,20.10
2023-04-15T01:44:14.346Z,22.42
2023-04-15T01:46:42.352Z,21.42
2023-04-15T01:49:10.214Z,21.23
2023-04-15T01:51:38.214Z,21.52
2023-04-15T01:54:07.878Z,21.05
2023-04-15T01:56:35.802Z,22.02
2023-04-15T01:59:04.857Z,20.30
2023-04-15T02:01:34.311Z,21.55
2023-04-15T02:04:02.494Z,22.70
2023-04-15T02:06:32.575Z,21.55
2023-04-15T02:09:00.898Z,22.30
2023-04-15T02:11:29.029Z,24.05
2023-04-15T02:13:56.943Z,22.50
2023-04-15T02:16:26.735Z,25.35
2023-04-15T02:18:56.044Z,23.02
2023-04-15T02:21:24.047Z,22.33
2023-04-15T02:23:54.136Z,24.08
2023-04-15T02:26:22.460Z,23.33
2023-04-15T02:28:51.405Z,23.63
2023-04-15T02:31:19.434Z,23.95
2023-04-15T02:33:47.733Z,23.60
2023-04-15T02:36:17.026Z,23.35
2023-04-15T02:38:45.402Z,24.33
2023-04-15T02:41:15.214Z,22.95
2023-04-15T02:43:45.187Z,24.92
2023-04-15T02:46:14.876Z,23.33
2023-04-15T02:48:42.963Z,23.75
2023-04-15T02:51:15.449Z,23.85
2023-04-15T02:53:44.856Z,22.65
2023-04-15T02:56:12.857Z,23.75
2023-04-15T02:58:41.416Z,22.38
2023-04-15T03:01:09.916Z,24.50
2023-04-15T03:03:38.364Z,24.40
2023-04-15T03:06:06.967Z,25.02
2023-04-15T03:08:35.226Z,23.95
2023-04-15T03:11:05.052Z,25.20
2023-04-15T03:13:34.194Z,23.52
2023-04-15T03:16:09.645Z,23.23
2023-04-15T03:18:37.847Z,24.35
2023-04-15T03:21:06.317Z,23.77
2023-04-15T03:23:37.026Z,23.50
2023-04-15T03:26:06.612Z,24.23
2023-04-15T03:28:35.305Z,23.58
2023-04-15T03:31:03.710Z,24.58
2023-04-15T03:33:32.114Z,23.67
2023-04-15T03:36:00.402Z,25.23
2023-04-15T03:38:28.745Z,23.83
2023-04-15T03:40:56.894Z,23.63
2023-04-15T03:43:26.517Z,24.00
2023-04-15T03:45:54.466Z,24.95
2023-04-15T03:48:22.409Z,23.52
2023-04-15T03:50:50.446Z,24.23
2023-04-15T03:53:18.390Z,24.25
2023-04-15T03:55:46.670Z,24.02
2023-04-15T03:58:14.619Z,23.67
2023-04-15T04:00:44.068Z,23.30
2023-04-15T04:03:12.303Z,23.05
2023-04-15T04:05:41.580Z,23.67
2023-04-15T04:08:10.918Z,22.70
2023-04-15T04:10:38.960Z,24.55
2023-04-15T04:13:07.122Z,23.77
2023-04-15T04:15:35.224Z,23.33
2023-04-15T04:18:04.756Z,23.10
2023-04-15T04:20:33.084Z,23.92
2023-04-15T04:23:01.120Z,23.00
2023-04-15T04:25:29.107Z,24.45
2023-04-15T04:27:57.102Z,24.20
2023-04-15T04:30:25.095Z,22.95
2023-04-15T04:32:53.151Z,23.55
2023-04-15T04:35:22.979Z,23.30
2023-04-15T04:37:51.023Z,21.40
2023-04-15T04:40:19.308Z,23.17
2023-04-15T04:42:47.355Z,25.30
2023-04-15T04:45:18.598Z,22.45
2023-04-15T04:47:46.829Z,23.33
2023-04-15T04:50:15.110Z,21.88
2023-04-15T04:52:44.413Z,21.92
2023-04-15T04:55:12.533Z,23.10
2023-04-15T04:57:40.576Z,22.50
2023-04-15T05:00:09.938Z,21.73
2023-04-15T05:02:38.191Z,23.25
2023-04-15T05:05:07.042Z,22.10
2023-04-15T05:07:35.144Z,22.50
2023-04-15T05:10:05.146Z,22.33
2023-04-15T05:12:33.207Z,22.15
2023-04-15T05:15:01.219Z,21.42
2023-04-15T05:17:31.292Z,21.80
2023-04-15T05:19:59.288Z,22.98
2023-04-15T05:22:27.504Z,21.25
2023-04-15T05:24:55.499Z,22.10
2023-04-15T05:27:25.955Z,22.40
2023-04-15T05:29:54.088Z,21.63
2023-04-15T05:32:22.086Z,21.67
2023-04-15T05:34:50.115Z,21.98
2023-04-15T05:37:18.183Z,21.95
2023-04-15T05:39:46.130Z,21.35
2023-04-15T05:42:14.147Z,21.27
2023-04-15T05:44:43.507Z,20.65
2023-04-15T05:47:11.587Z,20.50
2023-04-15T05:49:39.534Z,20.33
2023-04-15T05:52:07.619Z,20.02
2023-04-15T05:54:35.620Z,19.67
2023-04-15T05:57:04.029Z,18.38
2023-04-15T05:59:32.002Z,18.30
2023-04-15T06:02:01.360Z,17.70
2023-04-15T06:04:29.756Z,16.60
2023-04-15T06:06:57.959Z,16.73
2023-04-15T06:09:25.916Z,17.05
2023-04-15T06:11:55.153Z,15.80
2023-04-15T06:14:23.401Z,15.65
2023-04-15T06:16:51.430Z,16.40
2023-04-15T06:19:20.715Z,15.43
2023-04-15T06:21:48.648Z,14.48
2023-04-15T06:24:16.596Z,14.57
2023-04-15T06:26:44.558Z,15.55
2023-04-15T06:29:12.422Z,14.93
2023-04-15T06:31:40.542Z,14.52
2023-04-15T06:34:08.553Z,13.15
2023-04-15T06:36:37.800Z,13.20
2023-04-15T06:39:05.826Z,13.18
2023-04-15T06:41:34.306Z,12.73
2023-04-15T06:44:02.228Z,12.02
2023-04-15T06:46:30.256Z,11.60
2023-04-15T06:48:58.153Z,11.63
2023-04-15T06:51:26.822Z,12.35
2023-04-15T06:53:56.982Z,11.10
2023-04-15T06:56:25.039Z,11.98
2023-04-15T06:58:52.991Z,10.48
2023-04-15T07:01:21.510Z,11.05
2023-04-15T07:03:49.591Z,10.80
2023-04-15T07:06:17.589Z,10.75
2023-04-15T07:08:45.493Z,10.27
2023-04-15T07:11:15.163Z,10.55
2023-04-15T07:13:43.061Z,9.90
2023-04-15T07:16:11.090Z,9.85
2023-04-15T07:18:39.209Z,10.60
2023-04-15T07:21:07.224Z,9.82
2023-04-15T07:23:35.166Z,9.55
2023-04-15T07:26:03.217Z,9.23
2023-04-15T07:28:32.669Z,9.38
2023-04-15T07:31:00.840Z,9.88
2023-04-15T07:33:28.985Z,9.40
2023-04-15T07:35:56.936Z,8.98
2023-04-15T07:38:24.930Z,8.65
2023-04-15T07:40:53.198Z,9.57
2023-04-15T07:43:21.430Z,7.20
2023-04-15T07:45:50.792Z,8.65
2023-04-15T07:48:18.722Z,9.23
2023-04-15T07:50:46.622Z,8.95
2023-04-15T07:53:14.715Z,9.00
2023-04-15T07:55:42.657Z,8.15
2023-04-15T07:58:10.710Z,8.38
2023-04-15T08:00:38.806Z,8.75
2023-04-15T08:03:08.476Z,7.45
2023-04-15T08:05:36.774Z,8.63
2023-04-15T08:08:05.074Z,8.23
2023-04-15T08:10:33.094Z,9.02
2023-04-15T08:13:01.185Z,8.18
2023-04-15T08:15:29.207Z,8.65
2023-04-15T08:17:57.370Z,8.15
2023-04-15T08:20:26.753Z,8.32
2023-04-15T08:22:54.706Z,8.68
2023-04-15T08:25:22.705Z,8.65
2023-04-15T08:27:50.937Z,7.68
2023-04-15T08:30:19.453Z,8.70
2023-04-15T08:32:47.805Z,8.25
2023-04-15T08:35:16.332Z,8.55
2023-04-15T08:37:45.690Z,8.85
2023-04-15T08:40:14.201Z,8.82
2023-04-15T08:42:45.705Z,8.02
2023-04-15T08:45:13.627Z,8.70
2023-04-15T08:47:41.873Z,8.10
2023-04-15T08:50:11.853Z,8.57
2023-04-15T08:52:40.223Z,8.85
2023-04-15T08:55:10.682Z,7.70
2023-04-15T08:57:39.913Z,8.50
2023-04-15T09:00:09.447Z,8.68
2023-04-15T09:02:37.703Z,8.40
2023-04-15T09:05:07.067Z,7.63
2023-04-15T09:07:35.872Z,8.13
2023-04-15T09:10:05.088Z,8.30
2023-04-15T09:12:36.912Z,8.15
2023-04-15T09:15:05.397Z,7.80
2023-04-15T09:17:34.966Z,7.57
2023-04-15T09:20:10.892Z,6.97
2023-04-15T09:22:38.916Z,7.50
2023-04-15T09:25:27.298Z,7.85
2023-04-15T09:27:58.100Z,7.20
2023-04-15T09:30:26.633Z,7.75
2023-04-15T09:32:55.798Z,6.93
2023-04-15T09:35:24.618Z,7.75
2023-04-15T09:37:52.583Z,9.05
2023-04-15T09:40:32.695Z,8.25
2023-04-15T09:43:03.098Z,8.23
2023-04-15T09:45:31.281Z,8.48
2023-04-15T09:47:59.908Z,8.98
2023-04-15T09:50:29.447Z,9.70
2023-04-15T09:52:57.644Z,8.75
2023-04-15T09:55:25.566Z,9.02
2023-04-15T09:57:53.644Z,9.70
2023-04-15T10:00:22.976Z,10.32
2023-04-15T10:02:51.106Z,8.60
2023-04-15T10:05:19.550Z,9.88
2023-04-15T10:07:48.399Z,10.57
2023-04-15T10:10:19.444Z,10.73
2023-04-15T10:12:48.081Z,8.07
2023-04-15T10:15:17.852Z,10.13
2023-04-15T10:17:48.354Z,10.00
2023-04-15T10:20:16.467Z,10.30
2023-04-15T10:22:45.075Z,10.18
2023-04-15T10:25:13.417Z,9.57
2023-04-15T10:27:42.238Z,9.82
2023-04-15T10:30:11.621Z,10.07
2023-04-15T10:32:39.789Z,10.68
2023-04-15T10:35:09.997Z,9.80
2023-04-15T10:37:40.098Z,9.63
2023-04-15T10:40:28.464Z,9.25
2023-04-15T10:42:57.298Z,9.68
2023-04-15T10:45:28.067Z,8.98
2023-04-15T10:48:02.187Z,9.65
2023-04-15T10:50:33.996Z,9.88
2023-04-15T10:53:04.794Z,10.82
2023-04-15T10:55:34.860Z,10.27
2023-04-15T10:58:03.693Z,9.32
2023-04-15T11:00:33.338Z,10.50
2023-04-15T11:03:07.349Z,10.27
2023-04-15T11:05:53.082Z,9.80
2023-04-15T11:08:21.790Z,11.18
2023-04-15T11:10:57.439Z,10.15
2023-04-15T11:13:33.093Z,10.32
2023-04-15T11:16:03.400Z,10.68
2023-04-15T11:18:34.137Z,10.02
2023-04-15T11:21:05.546Z,10.38
2023-04-15T11:23:36.786Z,8.98
2023-04-15T11:26:09.334Z,11.18
2023-04-15T11:28:39.036Z,11.02
2023-04-15T11:31:10.745Z,11.60
2023-04-15T11:33:40.257Z,10.20
2023-04-15T11:36:09.635Z,9.98
2023-04-15T11:38:38.060Z,10.88
2023-04-15T11:41:06.168Z,11.20
2023-04-15T11:43:35.593Z,11.60
2023-04-15T11:46:04.910Z,9.50
2023-04-15T11:48:34.671Z,11.73
2023-04-15T11:51:04.280Z,11.65
2023-04-15T11:53:41.387Z,10.20
2023-04-15T11:56:11.134Z,12.27
2023-04-15T11:58:39.608Z,11.95
2023-04-15T12:01:08.170Z,12.50
2023-04-15T12:03:40.550Z,12.15
2023-04-15T12:06:19.151Z,10.18
2023-04-15T12:09:09.358Z,9.68
2023-04-15T12:11:47.207Z,10.13
2023-04-15T12:14:23.476Z,9.20
2023-04-15T12:16:54.123Z,8.63
2023-04-15T12:19:26.483Z,8.98
2023-04-15T12:21:58.786Z,8.98
2023-04-15T12:24:31.022Z,8.63
2023-04-15T12:26:59.350Z,7.95
2023-04-15T12:29:28.985Z,9.00
2023-04-15T12:31:59.922Z,8.10
2023-04-15T12:34:29.910Z,8.63
2023-04-15T12:36:59.047Z,8.52
2023-04-15T12:39:30.706Z,9.48
2023-04-15T12:42:01.654Z,9.57
2023-04-15T12:44:29.957Z,9.23
2023-04-15T12:46:58.342Z,9.43
2023-04-15T12:49:26.799Z,9.57
2023-04-15T12:51:56.805Z,8.63
2023-04-15T12:54:24.984Z,10.23
2023-04-15T12:56:53.222Z,11.02
2023-04-15T12:59:24.485Z,10.60
2023-04-15T13:01:53.731Z,11.23
2023-04-15T13:04:22.459Z,10.73
2023-04-15T13:06:50.908Z,10.02
2023-04-15T13:09:19.225Z,10.73
2023-04-15T13:11:47.157Z,10.70
2023-04-15T13:14:15.122Z,10.60
2023-04-15T13:16:44.436Z,11.48
2023-04-15T13:19:12.469Z,10.13
2023-04-15T13:21:40.636Z,10.13
2023-04-15T13:24:09.652Z,11.27
2023-04-15T13:26:38.040Z,10.60
2023-04-15T13:29:06.751Z,10.70
2023-04-15T13:31:34.844Z,10.20
2023-04-15T13:34:04.511Z,10.15
2023-04-15T13:36:32.833Z,10.93
2023-04-15T13:39:01.030Z,9.93
2023-04-15T13:41:29.110Z,10.50
2023-04-15T13:43:58.477Z,11.50
2023-04-15T13:46:26.952Z,10.48
2023-04-15T13:48:54.992Z,10.88
2023-04-15T13:51:24.624Z,11.18
2023-04-15T13:53:52.735Z,11.30
2023-04-15T13:56:21.671Z,12.07
2023-04-15T13:58:49.890Z,11.13
2023-04-15T14:01:17.913Z,12.05
2023-04-15T14:03:46.164Z,12.18
2023-04-15T14:06:14.299Z,11.70
2023-04-15T14:08:43.772Z,12.13
2023-04-15T14:11:11.769Z,11.98
2023-04-15T14:13:39.693Z,13.70
2023-04-15T14:16:07.991Z,13.55
2023-04-15T14:18:37.329Z,14.18
2023-04-15T14:21:06.860Z,12.77
2023-04-15T14:23:34.730Z,12.68
2023-04-15T14:26:04.067Z,13.00
2023-04-15T14:28:32.250Z,13.27
2023-04-15T14:31:00.624Z,12.57
2023-04-15T14:33:28.705Z,13.45
2023-04-15T14:35:56.637Z,13.68
2023-04-15T14:38:24.980Z,12.73
2023-04-15T14:40:52.963Z,12.70
2023-04-15T14:43:22.407Z,13.95
2023-04-15T14:45:51.599Z,14.45
2023-04-15T14:48:19.545Z,15.55
2023-04-15T14:50:48.219Z,18.02
2023-04-15T14:53:16.534Z,13.98
2023-04-15T14:55:45.206Z,14.05
2023-04-15T14:58:13.407Z,13.60
2023-04-15T15:00:44.505Z,13.00
2023-04-15T15:03:13.923Z,13.00
2023-04-15T15:05:42.256Z,13.35
2023-04-15T15:08:11.122Z,12.80
2023-04-15T15:10:46.904Z,11.60
2023-04-15T15:13:18.275Z,12.10
2023-04-15T15:15:49.412Z,12.10
2023-04-15T15:18:19.113Z,11.70
2023-04-15T15:20:47.535Z,12.63
2023-04-15T15:23:15.704Z,12.25
2023-04-15T15:25:43.658Z,11.35
2023-04-15T15:28:11.617Z,12.60
2023-04-15T15:30:39.640Z,12.30
2023-04-15T15:33:08.957Z,11.68
2023-04-15T15:35:37.163Z,11.70
2023-04-15T15:38:05.446Z,10.32
2023-04-15T15:40:33.449Z,11.63
2023-04-15T15:43:01.524Z,11.95
2023-04-15T15:45:29.595Z,11.45
2023-04-15T15:47:59.439Z,11.05
2023-04-15T15:50:29.429Z,11.60
2023-04-15T15:52:58.725Z,11.95
2023-04-15T15:55:27.404Z,12.07
2023-04-15T15:57:55.767Z,12.18
2023-04-15T16:00:24.081Z,10.32
2023-04-15T16:05:23.187Z,10.82
2023-04-15T16:07:52.752Z,10.45
2023-04-15T16:10:20.852Z,10.75
2023-04-15T16:12:48.937Z,11.07
2023-04-15T16:15:17.049Z,9.63
2023-04-15T16:17:45.081Z,10.82
2023-04-15T16:20:13.150Z,11.13
2023-04-15T16:22:41.277Z,10.55
2023-04-15T16:25:11.087Z,9.70
2023-04-15T16:30:11.803Z,10.88
2023-04-15T16:32:39.805Z,10.40
2023-04-15T16:35:08.767Z,10.77
2023-04-15T16:37:36.688Z,10.07
2023-04-15T16:40:05.139Z,11.18
2023-04-15T16:42:34.446Z,10.23
2023-04-15T16:45:02.509Z,10.63
2023-04-15T16:47:30.649Z,9.55
2023-04-15T16:49:58.736Z,10.93
2023-04-15T16:52:26.932Z,10.40
2023-04-15T16:54:55.020Z,11.82
2023-04-15T16:57:23.207Z,9.93
2023-04-15T16:59:55.251Z,10.57
2023-04-15T17:02:23.501Z,11.32
2023-04-15T17:04:51.861Z,10.48
2023-04-15T17:07:20.238Z,10.93
2023-04-15T17:09:48.301Z,10.93
2023-04-15T17:12:16.249Z,10.13
2023-04-15T17:14:44.331Z,10.50
2023-04-15T17:17:13.677Z,11.18
2023-04-15T17:19:41.699Z,10.77
2023-04-15T17:22:09.756Z,10.40
2023-04-15T17:24:37.847Z,9.73
2023-04-15T17:27:06.237Z,10.07
2023-04-15T17:29:34.426Z,10.95
2023-04-15T17:32:03.440Z,10.25
2023-04-15T17:34:49.868Z,11.07
2023-04-15T17:37:19.891Z,9.75
2023-04-15T17:39:47.967Z,9.63
2023-04-15T17:42:16.952Z,10.18
2023-04-15T17:44:45.049Z,10.43
2023-04-15T17:47:13.013Z,10.48
2023-04-15T17:49:42.426Z,9.88
2023-04-15T17:52:10.493Z,10.50
2023-04-15T17:54:38.637Z,10.43
2023-04-15T17:57:07.041Z,10.20
2023-04-15T17:59:34.997Z,10.70
2023-04-15T18:02:03.065Z,10.85
2023-04-15T18:04:31.377Z,10.85
2023-04-15T18:07:01.338Z,10.13
2023-04-15T18:09:29.463Z,11.05
2023-04-15T18:11:57.850Z,11.00
2023-04-15T18:14:34.102Z,10.57
2023-04-15T18:17:03.169Z,10.13
2023-04-15T18:19:31.810Z,10.93
2023-04-15T18:22:01.224Z,10.70
2023-04-15T18:24:29.379Z,10.65
2023-04-15T18:26:57.454Z,12.05
2023-04-15T18:29:25.592Z,11.82
2023-04-15T18:31:53.869Z,11.48
2023-04-15T18:34:21.987Z,10.75
2023-04-15T18:36:50.726Z,10.60
2023-04-15T18:39:20.436Z,10.95
2023-04-15T18:41:49.031Z,10.95
2023-04-15T18:44:17.394Z,10.43
2023-04-15T18:46:45.508Z,11.88
2023-04-15T18:49:14.373Z,12.27
2023-04-15T18:51:42.691Z,12.10
2023-04-15T18:54:10.704Z,12.05
2023-04-15T18:56:40.078Z,11.23
2023-04-15T18:59:28.635Z,12.18
2023-04-15T19:01:56.769Z,11.35
2023-04-15T19:04:25.128Z,12.52
2023-04-15T19:06:53.172Z,12.57
2023-04-15T19:09:21.425Z,12.48
2023-04-15T19:11:50.881Z,12.40
2023-04-15T19:14:18.997Z,11.98
2023-04-15T19:16:47.058Z,12.35
2023-04-15T19:19:18.202Z,12.30
2023-04-15T19:21:47.515Z,11.95
2023-04-15T19:24:15.448Z,11.30
2023-04-15T19:26:43.366Z,12.38
2023-04-15T19:29:12.682Z,12.77
2023-04-15T19:31:41.065Z,11.77
2023-04-15T19:34:09.159Z,11.90
2023-04-15T19:36:37.344Z,12.40
2023-04-15T19:39:06.164Z,13.02
2023-04-15T19:41:34.305Z,12.50
2023-04-15T19:44:03.088Z,12.57
2023-04-15T19:46:32.564Z,12.80
2023-04-15T19:49:00.783Z,12.18
2023-04-15T19:51:29.298Z,12.55
2023-04-15T19:53:57.404Z,13.25
2023-04-15T19:56:25.346Z,13.77
2023-04-15T19:58:53.944Z,12.45
2023-04-15T20:01:22.095Z,13.65
2023-04-15T20:03:53.954Z,14.20
2023-04-15T20:06:22.637Z,13.93
2023-04-15T20:08:50.844Z,13.18
2023-04-15T20:11:18.871Z,13.80
2023-04-15T20:13:46.972Z,13.02
2023-04-15T20:16:14.998Z,13.05
2023-04-15T20:18:43.032Z,13.32
2023-04-15T20:21:12.933Z,13.13
2023-04-15T20:23:41.355Z,13.50
2023-04-15T20:26:09.429Z,12.63
2023-04-15T20:28:37.711Z,12.95
2023-04-15T20:31:05.910Z,12.98
2023-04-15T20:33:33.936Z,12.75
2023-04-15T20:36:01.921Z,13.45
2023-04-15T20:38:31.207Z,13.35
2023-04-15T20:40:59.199Z,13.43
2023-04-15T20:43:27.237Z,14.43
2023-04-15T20:45:57.560Z,13.73
2023-04-15T20:48:26.746Z,13.65
2023-04-15T20:50:54.873Z,13.40
2023-04-15T20:53:22.841Z,14.23
2023-04-15T20:55:52.110Z,15.00
2023-04-15T20:58:20.078Z,14.43
2023-04-15T21:00:48.122Z,12.73
2023-04-15T21:03:16.239Z,13.70
2023-04-15T21:05:44.240Z,13.50
2023-04-15T21:08:12.871Z,14.20
2023-04-15T21:10:40.745Z,14.52
2023-04-15T21:13:11.936Z,13.02
2023-04-15T21:15:40.470Z,13.35
2023-04-15T21:18:08.335Z,14.23
2023-04-15T21:20:36.325Z,12.32
2023-04-15T21:23:04.280Z,13.38
2023-04-15T21:25:32.239Z,13.95
2023-04-15T21:28:00.229Z,12.93
2023-04-15T21:30:29.487Z,13.98
2023-04-15T21:32:57.489Z,13.43
2023-04-15T21:35:25.633Z,13.40
2023-04-15T21:37:53.561Z,13.80
2023-04-15T21:40:21.730Z,14.77
2023-04-15T21:42:49.807Z,13.60
2023-04-15T21:45:17.805Z,13.93
2023-04-15T21:48:00.388Z,13.90
2023-04-15T21:50:35.008Z,13.70
2023-04-15T21:53:02.944Z,14.45
2023-04-15T21:55:30.969Z,14.32
2023-04-15T21:57:58.895Z,13.95
2023-04-15T22:00:26.915Z,14.35
2023-04-15T22:02:58.948Z,14.73
2023-04-15T22:05:27.109Z,14.32
2023-04-15T22:07:58.245Z,14.90
2023-04-15T22:10:26.415Z,15.10
2023-04-15T22:12:54.702Z,13.23
2023-04-15T22:15:22.695Z,14.45
2023-04-15T22:17:50.839Z,14.90
2023-04-15T22:20:20.183Z,15.23
2023-04-15T22:22:48.171Z,13.95
2023-04-15T22:25:16.261Z,14.57
2023-04-15T22:27:44.172Z,14.65
2023-04-15T22:30:13.188Z,14.00
2023-04-15T22:32:41.360Z,12.98
2023-04-15T22:35:10.019Z,13.15
2023-04-15T22:37:39.292Z,14.77
2023-04-15T22:40:08.278Z,13.38
2023-04-15T22:42:36.119Z,13.35
2023-04-15T22:45:04.085Z,14.27
2023-04-15T22:47:32.080Z,13.10
2023-04-15T22:50:00.212Z,12.93
2023-04-15T22:52:30.934Z,13.65
2023-04-15T22:55:00.765Z,12.90
2023-04-15T22:57:28.897Z,12.93
2023-04-15T22:59:56.836Z,13.00
2023-04-15T23:02:24.987Z,12.15
2023-04-15T23:04:53.114Z,12.98
2023-04-15T23:07:21.122Z,13.23
2023-04-15T23:09:49.200Z,13.18
2023-04-15T23:12:18.485Z,12.55
2023-04-15T23:14:46.420Z,12.52
2023-04-15T23:17:14.341Z,12.75
2023-04-15T23:19:42.290Z,13.05
2023-04-15T23:22:10.720Z,12.18
2023-04-15T23:24:38.692Z,11.20
2023-04-15T23:27:06.600Z,12.07
2023-04-15T23:29:36.091Z,13.10
2023-04-15T23:32:04.057Z,13.32
2023-04-15T23:34:31.960Z,12.52
2023-04-15T23:36:59.845Z,13.15
2023-04-15T23:39:27.802Z,12.60
2023-04-15T23:41:56.339Z,13.38
2023-04-15T23:44:24.260Z,11.80
2023-04-15T23:46:53.678Z,12.32
2023-04-15T23:49:21.629Z,11.70
2023-04-15T23:51:49.505Z,12.68
2023-04-15T23:54:17.482Z,11.85
2023-04-15T23:56:46.219Z,12.02
2023-04-15T23:59:14.214Z,12.10
